Terminal Aerodrome Forecast
Issued by NWS Huntsville, AL

Home | Current Version | Previous Version | Text Only | Print | Product List | Glossary On
Versions: 1 2 3 4 5 6 7 8 9 10 11 12 13 14 15 16 17 18 19 20 21 22 23
000
FTUS44 KHUN 282320
TAFMSL
TAF
KMSL 282320Z 2900/2924 VRB04KT P6SM VCSH SCT070 SCT250
      TEMPO 2900/2901 03012G20KT
     FM290300 VRB02KT P6SM SCT250
      TEMPO 2910/2913 5SM BR
     FM291400 09005KT P6SM SCT050 SCT250=

USA.gov is the U.S. government's official web portal to all federal, state and local government web resources and services.